LIRZ 200020Z AUTO 01004KT 9999 NCD 12/09 Q1027 LIRZ 192350Z AUTO 36007KT 9999 NCD 12/09 Q1027 LIRZ 192320Z AUTO VRB02KT 9999 NCD 14/09 Q1027 LIRZ 192250Z AUTO 02003KT 340V050 9999 NCD 14/09 Q1027 LIRZ 192220Z AUTO 02006KT 9999 NCD 14/09 Q1027 LIRZ 192150Z AUTO 34006KT 9999 NCD 15/09 Q1027 LIRZ 192120Z AUTO 33004KT 250V010 9999 NCD 16/09 Q1026 LIRZ 192050Z AUTO 32006KT 240V360 9999 NCD 16/09 Q1026 LIRZ 192020Z AUTO 02011KT 9999 NCD 17/09 Q1025 LIRZ 191950Z AUTO 36007KT 9999 NCD 18/09 Q1025 LIRZ 191920Z AUTO 36008KT 9999 NCD 19/09 Q1025 LIRZ 191850Z AUTO 01008KT 9999 NCD 19/09 Q1025 LIRZ 191820Z AUTO 01008KT 9999 NCD 21/08 Q1024 LIRZ 191750Z AUTO 01008KT 340V040 9999 NCD 24/08 Q1024 LIRZ 191720Z AUTO 03009KT 9999 NCD 26/07 Q1024 LIRZ 191650Z AUTO 05010KT 9999 NCD 27/06 Q1024 LIRZ 191620Z AUTO 01009KT 9999 NCD 27/05 Q1024 LIRZ 191550Z AUTO 04010KT 9999 NCD 28/05 Q1024 LIRZ 191520Z AUTO 04010KT 010V070 9999 NCD 28/04 Q1024 LIRZ 191450Z AUTO 01008KT 330V050 9999 NCD 28/02 Q1024 LIRZ 191420Z AUTO 02008KT 340V040 9999 NCD 28/03 Q1024 LIRZ 191350Z AUTO 02008KT 320V060 9999 NCD 28/04 Q1024 LIRZ 191320Z AUTO 36007KT 280V060 9999 NCD 28/04 Q1024 LIRZ 191250Z AUTO VRB04KT 9999 NCD 28/05 Q1025 LIRZ 191220Z AUTO 01005KT 310V110 9999 NCD 28/05 Q1025 LIRZ 191150Z AUTO VRB05KT 9999 NCD 28/05 Q1025 LIRZ 191120Z AUTO VRB04KT 9999 NCD 27/05 Q1025 LIRZ 191050Z AUTO 03007KT 320V070 9999 NCD 27/05 Q1025 LIRZ 191020Z AUTO 02009KT 340V070 9999 NCD 26/06 Q1025 LIRZ 190950Z AUTO 02011KT 350V050 9999 NCD 25/05 Q1025 LIRZ 190920Z AUTO 02011KT 9999 NCD 25/01 Q1026 LIRZ 190850Z AUTO 04010KT 010V080 9999 NCD 25/03 Q1026 LIRZ 190820Z AUTO 07011KT 040V100 9999 NCD 24/03 Q1026 LIRZ 190750Z AUTO 06010KT 040V100 9999 NCD 23/04 Q1025 LIRZ 190720Z AUTO 04012KT 9999 NCD 22/07 Q1025 LIRZ 190650Z AUTO 01009KT 330V040 9999 NCD 21/08 Q1025 LIRZ 190620Z AUTO 36008KT 320V030 9999 NCD 20/09 Q1025 LIRZ 190550Z AUTO 01009KT 9999 NCD 19/10 Q1025 LIRZ 190520Z AUTO 01009KT 9999 NCD 17/09 Q1025 LIRZ 190450Z AUTO 36010KT 9999 NCD 14/09 Q1024 LIRZ 190420Z AUTO 01008KT 9999 NCD 13/09 Q1024 LIRZ 190350Z AUTO 02011KT 9999 NCD 12/09 Q1024 LIRZ 190320Z AUTO 02012KT 9999 NCD 13/08 Q1024 LIRZ 190250Z AUTO 02011KT 9999 NCD 14/08 Q1024 LIRZ 190220Z AUTO 03010KT 9999 NCD 14/08 Q1024 LIRZ 190150Z AUTO 01010KT 9999 NCD 15/08 Q1024 LIRZ 190120Z AUTO 03012KT 9999 NCD 15/08 Q1024 LIRZ 190050Z AUTO 02009KT 9999 NCD 14/08 Q1024 LIRZ 190020Z AUTO 02009KT 9999 NCD 17/08 Q1024 LIRZ 182350Z AUTO 31004KT 260V040 9999 NCD 16/08 Q1024 LIRZ 182320Z AUTO 02007KT 9999 NCD 15/08 Q1024 LIRZ 182250Z AUTO 03013KT 9999 NCD 18/09 Q1023 LIRZ 182220Z AUTO 03011KT 9999 NCD 17/09 Q1023 LIRZ 182150Z AUTO 01010KT 9999 NCD 16/10 Q1023 LIRZ 182120Z AUTO 35006KT 9999 NCD 16/10 Q1023 LIRZ 182050Z AUTO 02007KT 9999 NCD 18/09 Q1023 LIRZ 182020Z AUTO 02010KT 9999 NCD 18/09 Q1023 LIRZ 181950Z AUTO 04010KT 9999 NCD 19/09 Q1022 LIRZ 181920Z AUTO 04013KT 9999 NCD 20/09 Q1022 LIRZ 181850Z AUTO 03012KT 9999 NCD 20/07 Q1022 LIRZ 181820Z AUTO 05008KT 9999 NCD 21/06 Q1022 LIRZ 181750Z AUTO 04009KT 010V070 9999 NCD 22/07 Q1021 LIRZ 181720Z AUTO 04012KT 9999 NCD 23/06 Q1021 LIRZ 181650Z AUTO 05017KT 9999 NCD 24/06 Q1021 LIRZ 181620Z AUTO 05018KT 9999 NCD 25/06 Q1021 LIRZ 181550Z AUTO 04018KT 9999 NCD 25/07 Q1021 LIRZ 181520Z AUTO 04019KT 9999 NCD 26/08 Q1021 LIRZ 181450Z AUTO 05016KT 9999 NCD 26/08 Q1021 LIRZ 181420Z AUTO 03018KT 9999 FEW100/// 27/09 Q1021 LIRZ 181350Z AUTO 03014KT 9999 NCD 27/10 Q1021 LIRZ 181320Z AUTO 04013KT 9999 FEW073/// 27/12 Q1021 LIRZ 181250Z AUTO 06015KT 9999 FEW050/// 27/11 Q1021

METAR Messwerte "PERUGIA" LIRZ

Zurück zur Übersicht

Ortsname
Ländercode / m ü. NN
Zeit Temperatur Taupunkt Rel.
Luftfeuchte
Luftdruck:
Altimeter
NN
Station
Wind in Beaufort
(Knoten)
Sichtweite
(Meter)
Wolken
(Meter über Grund)
Wettererscheinung
PERUGIA
IT 206
Fr 20.05. 02:2012982 %1027
1027
1002
N 2 (4)>= 10000  
PERUGIA
IT 206
Fr 20.05. 01:5012982 %1027
1027
1002
N 3 (7)>= 10000  
PERUGIA
IT 206
Fr 20.05. 01:2014972 %1027
1027
1002
Uml 1 (2)>= 10000  
PERUGIA
IT 206
Fr 20.05. 00:5014972 %1027
1027
1002
NNO 2 (3)
NNW - NO
>= 10000  
PERUGIA
IT 206
Fr 20.05. 00:2014972 %1027
1027
1002
NNO 2 (6)>= 10000  
PERUGIA
IT 206
Do 19.05. 23:5015967 %1027
1027
1002
NNW 2 (6)>= 10000  
PERUGIA
IT 206
Do 19.05. 23:2016963 %1026
1026
1001
NNW 2 (4)
WSW - N
>= 10000  
PERUGIA
IT 206
Do 19.05. 22:5016963 %1026
1026
1001
NW 2 (6)
WSW - N
>= 10000  
PERUGIA
IT 206
Do 19.05. 22:2017959 %1025
1025
1000
NNO 4 (11)>= 10000  
PERUGIA
IT 206
Do 19.05. 21:5018956 %1025
1025
1000
N 3 (7)>= 10000  
PERUGIA
IT 206
Do 19.05. 21:2019952 %1025
1025
1000
N 3 (8)>= 10000  
PERUGIA
IT 206
Do 19.05. 20:5019952 %1025
1025
1000
N 3 (8)>= 10000  
PERUGIA
IT 206
Do 19.05. 20:2021843 %1024
1024
999
N 3 (8)>= 10000  
PERUGIA
IT 206
Do 19.05. 19:5024836 %1024
1023
999
N 3 (8)
NNW - NO
>= 10000  
PERUGIA
IT 206
Do 19.05. 19:2026730 %1024
1023
999
NNO 3 (9)>= 10000  
PERUGIA
IT 206
Do 19.05. 18:5027626 %1024
1023
999
NO 3 (10)>= 10000  
PERUGIA
IT 206
Do 19.05. 18:2027524 %1024
1023
999
N 3 (9)>= 10000  
PERUGIA
IT 206
Do 19.05. 17:5028523 %1024
1023
999
NO 3 (10)>= 10000  
PERUGIA
IT 206
Do 19.05. 17:2028422 %1024
1023
999
NO 3 (10)
N - ONO
>= 10000  
PERUGIA
IT 206
Do 19.05. 16:5028219 %1024
1023
999
N 3 (8)
NNW - NO
>= 10000  
PERUGIA
IT 206
Do 19.05. 16:2028320 %1024
1023
999
NNO 3 (8)
NNW - NO
>= 10000  
PERUGIA
IT 206
Do 19.05. 15:5028422 %1024
1023
999
NNO 3 (8)
NW - ONO
>= 10000  
PERUGIA
IT 206
Do 19.05. 15:2028422 %1024
1023
999
N 3 (7)
W - ONO
>= 10000  
PERUGIA
IT 206
Do 19.05. 14:5028523 %1025
1024
1000
Uml 2 (4)>= 10000  
PERUGIA
IT 206
Do 19.05. 14:2028523 %1025
1024
1000
N 2 (5)
NW - OSO
>= 10000  
PERUGIA
IT 206
Do 19.05. 13:5028523 %1025
1024
1000
Uml 2 (5)>= 10000  
PERUGIA
IT 206
Do 19.05. 13:2027524 %1025
1024
1000
Uml 2 (4)>= 10000  
PERUGIA
IT 206
Do 19.05. 12:5027524 %1025
1024
1000
NNO 3 (7)
NW - ONO
>= 10000  
PERUGIA
IT 206
Do 19.05. 12:2026628 %1025
1024
1000
NNO 3 (9)
NNW - ONO
>= 10000  
PERUGIA
IT 206
Do 19.05. 11:5025528 %1025
1024
1000
NNO 4 (11)
N - NO
>= 10000  
PERUGIA
IT 206
Do 19.05. 11:2025121 %1026
1025
1001
NNO 4 (11)>= 10000  
PERUGIA
IT 206
Do 19.05. 10:5025324 %1026
1025
1001
NO 3 (10)
N - O
>= 10000  
PERUGIA
IT 206
Do 19.05. 10:2024325 %1026
1025
1001
ONO 4 (11)
NO - O
>= 10000  
PERUGIA
IT 206
Do 19.05. 09:5023429 %1025
1024
1000
ONO 3 (10)
NO - O
>= 10000  
PERUGIA
IT 206
Do 19.05. 09:2022738 %1025
1024
1000
NO 4 (12)>= 10000  
PERUGIA
IT 206
Do 19.05. 08:5021843 %1025
1025
1000
N 3 (9)
NNW - NO
>= 10000  
PERUGIA
IT 206
Do 19.05. 08:2020949 %1025
1025
1000
N 3 (8)
NW - NNO
>= 10000  
PERUGIA
IT 206
Do 19.05. 07:50191056 %1025
1025
1000
N 3 (9)>= 10000  
PERUGIA
IT 206
Do 19.05. 07:2017959 %1025
1025
1000
N 3 (9)>= 10000  
PERUGIA
IT 206
Do 19.05. 06:5014972 %1024
1024
999
N 3 (10)>= 10000  
PERUGIA
IT 206
Do 19.05. 06:2013977 %1024
1024
999
N 3 (8)>= 10000  
PERUGIA
IT 206
Do 19.05. 05:5012982 %1024
1024
999
NNO 4 (11)>= 10000  
PERUGIA
IT 206
Do 19.05. 05:2013872 %1024
1024
999
NNO 4 (12)>= 10000  
PERUGIA
IT 206
Do 19.05. 04:5014867 %1024
1024
999
NNO 4 (11)>= 10000  
PERUGIA
IT 206
Do 19.05. 04:2014867 %1024
1024
999
NNO 3 (10)>= 10000  
PERUGIA
IT 206
Do 19.05. 03:5015863 %1024
1024
999
N 3 (10)>= 10000  
PERUGIA
IT 206
Do 19.05. 03:2015863 %1024
1024
999
NNO 4 (12)>= 10000  
PERUGIA
IT 206
Do 19.05. 02:5014867 %1024
1024
999
NNO 3 (9)>= 10000  
PERUGIA
IT 206
Do 19.05. 02:2017855 %1024
1024
999
NNO 3 (9)>= 10000  
PERUGIA
IT 206
Do 19.05. 01:5016859 %1024
1024
999
NW 2 (4)
W - NO
>= 10000  
PERUGIA
IT 206
Do 19.05. 01:2015863 %1024
1024
999
NNO 3 (7)>= 10000  
PERUGIA
IT 206
Do 19.05. 00:5018956 %1023
1023
998
NNO 4 (13)>= 10000  
PERUGIA
IT 206
Do 19.05. 00:2017959 %1023
1023
998
NNO 4 (11)>= 10000  
PERUGIA
IT 206
Mi 18.05. 23:50161068 %1023
1023
998
N 3 (10)>= 10000  
PERUGIA
IT 206
Mi 18.05. 23:20161068 %1023
1023
998
N 2 (6)>= 10000  
PERUGIA
IT 206
Mi 18.05. 22:5018956 %1023
1023
998
NNO 3 (7)>= 10000  
PERUGIA
IT 206
Mi 18.05. 22:2018956 %1023
1023
998
NNO 3 (10)>= 10000  
PERUGIA
IT 206
Mi 18.05. 21:5019952 %1022
1022
997
NO 3 (10)>= 10000  
PERUGIA
IT 206
Mi 18.05. 21:2020949 %1022
1022
997
NO 4 (13)>= 10000  
PERUGIA
IT 206
Mi 18.05. 20:5020743 %1022
1022
997
NNO 4 (12)>= 10000  
PERUGIA
IT 206
Mi 18.05. 20:2021638 %1022
1022
997
NO 3 (8)>= 10000  
PERUGIA
IT 206
Mi 18.05. 19:5022738 %1021
1020
996
NO 3 (9)
N - ONO
>= 10000  
PERUGIA
IT 206
Mi 18.05. 19:2023633 %1021
1020
996
NO 4 (12)>= 10000  
PERUGIA
IT 206
Mi 18.05. 18:5024631 %1021
1020
996
NO 5 (17)>= 10000  
PERUGIA
IT 206
Mi 18.05. 18:2025630 %1021
1020
996
NO 5 (18)>= 10000  
PERUGIA
IT 206
Mi 18.05. 17:5025732 %1021
1020
996
NO 5 (18)>= 10000  
PERUGIA
IT 206
Mi 18.05. 17:2026832 %1021
1020
996
NO 5 (19)>= 10000  
PERUGIA
IT 206
Mi 18.05. 16:5026832 %1021
1020
996
NO 5 (16)>= 10000  
PERUGIA
IT 206
Mi 18.05. 16:2027932 %1021
1020
996
NNO 5 (18)>= 10000Leicht bewölkt (3000) 
PERUGIA
IT 206
Mi 18.05. 15:50271034 %1021
1020
996
NNO 4 (14)>= 10000  
PERUGIA
IT 206
Mi 18.05. 15:20271239 %1021
1020
996
NO 4 (13)>= 10000Leicht bewölkt (2200) 
PERUGIA
IT 206
Mi 18.05. 14:50271137 %1021
1020
996
ONO 4 (15)>= 10000Leicht bewölkt (1500) 

Altimeter: Einstellung am Altimeter (Höhenmesser), die Höhe 0 muss auf diesen Luftdruckwert zeigen, damit das Gerät die Stationshöhe richtig anzeigt.

NN: Luftdruck reduziert auf "Normal Null", auf Meereshöhe, dieser von der Temperatur abhängige Wert wird bisweilen unkorrekt einfach als "Luftdruck" bezeichnet. Eigentlich nur eine fiktive Größe, die es erlaubt, Stationen auf unterschiedlichen Höhen miteinander zu vergleichen.

Station: Realer Luftdruck an der Station.